createdAt,value
2023-05-11T00:00:27.047Z,1.45
2023-05-11T00:03:01.055Z,1.80
2023-05-11T00:05:34.480Z,2.08
2023-05-11T00:08:07.007Z,2.38
2023-05-11T00:10:39.776Z,1.40
2023-05-11T00:13:12.567Z,1.48
2023-05-11T00:15:45.753Z,1.33
2023-05-11T00:18:20.167Z,0.88
2023-05-11T00:20:53.185Z,1.30
2023-05-11T00:23:25.675Z,0.80
2023-05-11T00:25:58.724Z,1.30
2023-05-11T00:28:31.233Z,1.38
2023-05-11T00:31:04.554Z,0.80
2023-05-11T00:33:39.213Z,1.90
2023-05-11T00:36:11.944Z,1.57
2023-05-11T00:38:45.172Z,1.25
2023-05-11T00:41:17.655Z,1.13
2023-05-11T00:43:50.462Z,0.60
2023-05-11T00:46:23.127Z,1.98
2023-05-11T00:48:58.084Z,0.70
2023-05-11T00:51:32.207Z,1.33
2023-05-11T00:54:05.823Z,0.90
2023-05-11T00:56:38.573Z,0.77
2023-05-11T00:59:11.880Z,0.60
2023-05-11T01:01:44.598Z,1.33
2023-05-11T01:04:20.088Z,1.17
2023-05-11T01:07:01.307Z,0.68
2023-05-11T01:09:45.150Z,0.80
2023-05-11T01:12:33.766Z,0.77
2023-05-11T01:15:12.775Z,0.70
2023-05-11T01:17:55.251Z,0.93
2023-05-11T01:20:30.984Z,0.98
2023-05-11T01:23:22.644Z,1.67
2023-05-11T01:26:17.829Z,1.10
2023-05-11T01:29:16.020Z,0.73
2023-05-11T01:31:54.834Z,0.68
2023-05-11T01:34:33.363Z,0.75
2023-05-11T01:37:11.047Z,0.65
2023-05-11T01:39:49.121Z,0.55
2023-05-11T01:42:26.509Z,0.53
2023-05-11T01:45:00.970Z,0.77
2023-05-11T01:47:40.864Z,1.23
2023-05-11T01:50:16.293Z,0.70
2023-05-11T01:52:51.063Z,1.23
2023-05-11T01:55:26.199Z,0.90
2023-05-11T01:58:00.165Z,0.95
2023-05-11T02:00:34.462Z,0.80
2023-05-11T02:03:09.279Z,0.93
2023-05-11T02:05:44.177Z,0.73
2023-05-11T02:08:18.701Z,0.40
2023-05-11T02:10:51.885Z,0.65
2023-05-11T02:13:28.583Z,0.82
2023-05-11T02:16:03.164Z,1.27
2023-05-11T02:18:39.812Z,1.27
2023-05-11T02:21:15.367Z,1.10
2023-05-11T02:23:49.914Z,2.05
2023-05-11T02:26:23.387Z,1.00
2023-05-11T02:28:57.030Z,1.55
2023-05-11T02:31:32.903Z,1.15
2023-05-11T02:34:21.077Z,0.60
2023-05-11T02:37:02.990Z,1.15
2023-05-11T02:39:40.639Z,0.57
2023-05-11T02:42:18.611Z,0.70
2023-05-11T02:45:01.173Z,1.52
2023-05-11T02:47:43.077Z,0.87
2023-05-11T02:50:19.363Z,1.40
2023-05-11T02:52:57.406Z,0.75
2023-05-11T02:55:31.324Z,0.45
2023-05-11T02:58:04.881Z,0.98
2023-05-11T03:00:39.792Z,1.00
2023-05-11T03:03:13.319Z,0.50
2023-05-11T03:05:47.545Z,1.20
2023-05-11T03:08:20.137Z,0.88
2023-05-11T03:10:54.703Z,0.73
2023-05-11T03:13:29.072Z,0.60
2023-05-11T03:16:04.259Z,0.88
2023-05-11T03:18:39.038Z,0.95
2023-05-11T03:21:16.357Z,1.00
2023-05-11T03:23:50.301Z,0.50
2023-05-11T03:26:27.728Z,2.30
2023-05-11T03:29:02.433Z,3.58
2023-05-11T03:31:35.812Z,0.80
2023-05-11T03:34:08.663Z,2.17
2023-05-11T03:36:49.189Z,1.08
2023-05-11T03:39:23.593Z,1.50
2023-05-11T03:41:58.246Z,1.77
2023-05-11T03:44:33.181Z,1.20
2023-05-11T03:47:07.285Z,1.33
2023-05-11T03:49:41.434Z,1.30
2023-05-11T03:52:16.344Z,1.27
2023-05-11T03:54:49.640Z,0.70
2023-05-11T03:57:25.854Z,1.65
2023-05-11T03:59:58.569Z,1.02
2023-05-11T04:02:31.858Z,1.25
2023-05-11T04:05:08.240Z,2.13
2023-05-11T04:07:42.811Z,0.95
2023-05-11T04:10:15.412Z,2.38
2023-05-11T04:12:48.646Z,1.80
2023-05-11T04:15:21.622Z,1.77
2023-05-11T04:17:54.853Z,2.43
2023-05-11T04:20:27.502Z,1.98
2023-05-11T04:23:01.756Z,1.40
2023-05-11T04:25:36.826Z,1.40
2023-05-11T04:28:10.193Z,1.95
2023-05-11T04:30:42.797Z,1.77
2023-05-11T04:33:15.868Z,2.25
2023-05-11T04:35:50.443Z,2.67
2023-05-11T04:38:25.194Z,2.97
2023-05-11T04:41:03.523Z,2.70
2023-05-11T04:43:36.225Z,2.20
2023-05-11T04:46:09.131Z,2.85
2023-05-11T04:48:42.349Z,2.65
2023-05-11T04:51:16.080Z,3.60
2023-05-11T04:53:52.277Z,4.47
2023-05-11T04:56:25.638Z,5.10
2023-05-11T04:58:58.588Z,6.45
2023-05-11T05:01:31.289Z,6.68
2023-05-11T05:04:04.294Z,5.80
2023-05-11T05:06:38.760Z,8.13
2023-05-11T05:09:12.644Z,6.77
2023-05-11T05:11:45.780Z,5.18
2023-05-11T05:14:18.464Z,4.88
2023-05-11T05:16:51.595Z,4.63
2023-05-11T05:19:25.096Z,4.75
2023-05-11T05:21:58.130Z,3.80
2023-05-11T05:24:32.126Z,3.60
2023-05-11T05:27:05.278Z,2.92
2023-05-11T05:29:37.820Z,1.58
2023-05-11T05:32:11.219Z,1.48
2023-05-11T05:34:43.881Z,1.60
2023-05-11T05:37:17.200Z,1.50
2023-05-11T05:39:51.556Z,1.40
2023-05-11T05:42:24.890Z,0.80
2023-05-11T05:44:57.453Z,0.80
2023-05-11T05:47:30.615Z,1.07
2023-05-11T05:50:03.229Z,0.85
2023-05-11T05:52:37.823Z,0.88
2023-05-11T05:55:12.680Z,0.70
2023-05-11T05:57:46.179Z,0.68
2023-05-11T06:00:19.545Z,4.47
2023-05-11T06:03:00.959Z,8.00
2023-05-11T06:05:34.437Z,0.80
2023-05-11T06:08:10.947Z,9.02
2023-05-11T06:10:46.939Z,1.07
2023-05-11T06:13:21.036Z,0.70
2023-05-11T06:15:54.146Z,0.60
2023-05-11T06:18:33.283Z,0.80
2023-05-11T06:21:08.353Z,0.70
2023-05-11T06:23:41.181Z,0.77
2023-05-11T06:26:15.707Z,1.20
2023-05-11T06:28:49.197Z,0.50
2023-05-11T06:31:23.418Z,1.23
2023-05-11T06:33:56.701Z,0.52
2023-05-11T06:36:33.076Z,0.70
2023-05-11T06:39:07.315Z,0.45
2023-05-11T06:41:41.453Z,0.75
2023-05-11T06:44:14.790Z,0.55
2023-05-11T06:46:50.212Z,0.65
2023-05-11T06:49:22.707Z,0.57
2023-05-11T06:51:55.773Z,0.90
2023-05-11T06:54:28.224Z,0.90
2023-05-11T06:57:04.093Z,0.50
2023-05-11T06:59:37.112Z,0.50
2023-05-11T07:02:09.720Z,0.83
2023-05-11T07:04:42.530Z,0.55
2023-05-11T07:07:15.630Z,0.30
2023-05-11T07:09:48.404Z,0.40
2023-05-11T07:12:23.301Z,0.80
2023-05-11T07:14:56.289Z,0.73
2023-05-11T07:17:28.895Z,0.47
2023-05-11T07:20:01.880Z,0.52
2023-05-11T07:22:39.247Z,0.40
2023-05-11T07:25:12.065Z,0.43
2023-05-11T07:27:46.465Z,0.40
2023-05-11T07:30:19.434Z,0.70
2023-05-11T07:32:52.809Z,1.02
2023-05-11T07:35:25.476Z,0.38
2023-05-11T07:37:58.792Z,0.80
2023-05-11T07:40:31.326Z,0.57
2023-05-11T07:43:05.714Z,0.82
2023-05-11T07:45:39.434Z,0.30
2023-05-11T07:48:12.593Z,0.40
2023-05-11T07:50:45.402Z,0.40
2023-05-11T07:53:18.523Z,0.40
2023-05-11T07:55:51.330Z,0.70
2023-05-11T07:58:26.003Z,0.80
2023-05-11T08:00:59.192Z,0.57
2023-05-11T08:03:32.228Z,0.50
2023-05-11T08:06:05.674Z,0.60
2023-05-11T08:08:39.112Z,0.47
2023-05-11T08:11:11.637Z,0.52
2023-05-11T08:13:46.090Z,0.30
2023-05-11T08:16:18.706Z,0.43
2023-05-11T08:18:51.958Z,0.60
2023-05-11T08:21:24.695Z,0.40
2023-05-11T08:23:57.511Z,0.70
2023-05-11T08:26:30.397Z,0.88
2023-05-11T08:29:04.931Z,0.90
2023-05-11T08:31:37.445Z,0.40
2023-05-11T08:36:47.460Z,0.40
2023-05-11T08:39:38.492Z,0.70
2023-05-11T08:42:17.249Z,0.65
2023-05-11T08:44:55.695Z,0.80
2023-05-11T08:47:29.464Z,0.30
2023-05-11T08:50:02.801Z,0.80
2023-05-11T08:52:37.990Z,0.57
2023-05-11T08:55:11.348Z,0.40
2023-05-11T08:57:46.713Z,0.30
2023-05-11T09:00:23.864Z,0.35
2023-05-11T09:02:57.892Z,0.30
2023-05-11T09:05:31.860Z,0.38
2023-05-11T09:08:06.203Z,0.32
2023-05-11T09:10:39.336Z,0.40
2023-05-11T09:13:13.047Z,0.30
2023-05-11T09:15:47.526Z,0.60
2023-05-11T09:18:20.732Z,0.38
2023-05-11T09:20:54.070Z,0.50
2023-05-11T09:23:27.509Z,0.50
2023-05-11T09:26:01.703Z,0.65
2023-05-11T09:28:35.931Z,0.88
2023-05-11T09:31:10.653Z,0.25
2023-05-11T09:33:43.512Z,0.68
2023-05-11T09:36:24.935Z,0.40
2023-05-11T09:39:02.985Z,1.02
2023-05-11T09:41:36.538Z,0.55
2023-05-11T09:44:12.886Z,0.90
2023-05-11T09:46:47.868Z,0.73
2023-05-11T09:49:29.544Z,0.40
2023-05-11T09:52:02.503Z,0.68
2023-05-11T09:54:42.854Z,0.40
2023-05-11T09:57:27.378Z,0.60
2023-05-11T10:00:00.988Z,0.40
2023-05-11T10:02:38.878Z,0.40
2023-05-11T10:05:13.317Z,1.00
2023-05-11T10:07:57.776Z,0.75
2023-05-11T10:10:32.875Z,0.28
2023-05-11T10:13:06.088Z,0.38
2023-05-11T10:15:39.206Z,0.50
2023-05-11T10:18:13.599Z,0.20
2023-05-11T10:20:46.670Z,0.30
2023-05-11T10:23:21.505Z,0.50
2023-05-11T10:25:55.001Z,0.40
2023-05-11T10:28:30.521Z,0.50
2023-05-11T10:31:05.130Z,0.50
2023-05-11T10:33:42.394Z,0.50
2023-05-11T10:36:19.470Z,0.40
2023-05-11T10:38:52.832Z,0.35
2023-05-11T10:41:42.004Z,0.30
2023-05-11T10:47:53.847Z,0.60
2023-05-11T10:50:50.571Z,0.30
2023-05-11T10:53:42.027Z,0.40
2023-05-11T10:56:26.558Z,0.43
2023-05-11T10:59:21.430Z,0.65
2023-05-11T11:01:58.047Z,0.75
2023-05-11T11:04:43.773Z,0.68
2023-05-11T11:07:19.804Z,0.70
2023-05-11T11:09:55.328Z,0.67
2023-05-11T11:12:29.805Z,0.45
2023-05-11T11:15:05.169Z,0.20
2023-05-11T11:17:42.264Z,0.40
2023-05-11T11:20:49.524Z,0.50
2023-05-11T11:23:43.381Z,0.67
2023-05-11T11:26:19.277Z,0.60
2023-05-11T11:29:13.898Z,0.65
2023-05-11T11:31:46.795Z,0.40
2023-05-11T11:34:36.927Z,0.50
2023-05-11T11:37:10.058Z,0.47
2023-05-11T11:39:54.796Z,0.50
2023-05-11T11:42:35.041Z,0.50
2023-05-11T11:45:36.966Z,0.45
2023-05-11T11:48:14.703Z,0.50
2023-05-11T11:50:49.449Z,0.87
2023-05-11T11:54:05.383Z,0.60
2023-05-11T11:56:41.180Z,0.50
2023-05-11T11:59:17.424Z,0.68
2023-05-11T12:01:52.272Z,0.63
2023-05-11T12:04:40.463Z,0.70
2023-05-11T12:07:13.144Z,0.30
2023-05-11T12:09:46.758Z,0.38
2023-05-11T12:12:21.486Z,0.32
2023-05-11T12:14:54.870Z,0.50
2023-05-11T12:17:29.555Z,0.47
2023-05-11T12:20:14.223Z,0.30
2023-05-11T12:22:49.221Z,0.50
2023-05-11T12:25:22.801Z,0.70
2023-05-11T12:28:03.475Z,1.00
2023-05-11T12:30:36.244Z,0.60
2023-05-11T12:33:09.095Z,0.22
2023-05-11T12:35:44.670Z,0.50
2023-05-11T12:38:18.182Z,0.40
2023-05-11T12:40:52.618Z,0.68
2023-05-11T12:43:26.797Z,0.60
2023-05-11T12:45:59.649Z,0.40
2023-05-11T12:48:32.651Z,0.80
2023-05-11T12:51:06.081Z,0.63
2023-05-11T12:53:39.981Z,0.30
2023-05-11T12:56:13.174Z,0.50
2023-05-11T12:58:46.929Z,0.52
2023-05-11T13:01:25.677Z,0.50
2023-05-11T13:03:58.392Z,0.57
2023-05-11T13:06:32.937Z,0.70
2023-05-11T13:09:06.229Z,0.47
2023-05-11T13:11:39.750Z,0.60
2023-05-11T13:14:18.078Z,0.50
2023-05-11T13:16:54.428Z,0.40
2023-05-11T13:19:31.788Z,0.40
2023-05-11T13:22:04.718Z,0.30
2023-05-11T13:24:37.832Z,0.70
2023-05-11T13:27:10.912Z,0.45
2023-05-11T13:29:45.346Z,0.80
2023-05-11T13:32:17.842Z,0.55
2023-05-11T13:34:50.773Z,0.37
2023-05-11T13:37:23.617Z,0.30
2023-05-11T13:39:56.742Z,0.90
2023-05-11T13:42:29.571Z,0.50
2023-05-11T13:45:04.675Z,0.68
2023-05-11T13:47:41.499Z,0.30
2023-05-11T13:50:16.263Z,0.55
2023-05-11T13:52:49.274Z,0.38
2023-05-11T13:55:22.309Z,0.38
2023-05-11T13:57:58.136Z,0.50
2023-05-11T14:00:35.233Z,0.60
2023-05-11T14:03:08.297Z,0.60
2023-05-11T14:05:41.578Z,0.90
2023-05-11T14:08:14.662Z,1.05
2023-05-11T14:10:47.451Z,1.30
2023-05-11T14:13:20.071Z,0.63
2023-05-11T14:15:54.555Z,1.25
2023-05-11T14:18:27.802Z,0.82
2023-05-11T14:21:01.253Z,0.82
2023-05-11T14:23:33.817Z,0.50
2023-05-11T14:26:07.300Z,0.67
2023-05-11T14:28:40.397Z,0.60
2023-05-11T14:31:15.255Z,1.23
2023-05-11T14:33:48.478Z,0.80
2023-05-11T14:36:21.496Z,0.60
2023-05-11T14:38:54.333Z,0.50
2023-05-11T14:41:27.154Z,0.50
2023-05-11T14:44:00.030Z,0.50
2023-05-11T14:46:36.702Z,0.63
2023-05-11T14:49:09.810Z,0.80
2023-05-11T14:51:42.412Z,0.80
2023-05-11T14:54:15.700Z,0.80
2023-05-11T14:56:53.964Z,0.70
2023-05-11T14:59:27.763Z,1.38
2023-05-11T15:02:01.882Z,0.55
2023-05-11T15:04:36.319Z,0.50
2023-05-11T15:07:09.393Z,0.30
2023-05-11T15:09:42.418Z,0.50
2023-05-11T15:12:14.819Z,0.40
2023-05-11T15:14:50.178Z,0.40
2023-05-11T15:17:25.833Z,0.63
2023-05-11T15:19:58.637Z,0.70
2023-05-11T15:22:31.533Z,0.40
2023-05-11T15:25:05.028Z,0.63
2023-05-11T15:27:38.040Z,0.30
2023-05-11T15:30:11.857Z,0.63
2023-05-11T15:32:46.165Z,0.60
2023-05-11T15:35:21.349Z,0.45
2023-05-11T15:37:54.486Z,0.35
2023-05-11T15:40:30.485Z,0.80
2023-05-11T15:43:07.990Z,0.50
2023-05-11T15:45:40.903Z,0.57
2023-05-11T15:48:15.416Z,0.20
2023-05-11T15:50:50.204Z,0.60
2023-05-11T15:53:24.819Z,0.50
2023-05-11T15:55:58.249Z,0.40
2023-05-11T15:58:31.228Z,0.70
2023-05-11T16:01:04.398Z,0.65
2023-05-11T16:03:38.352Z,0.40
2023-05-11T16:06:11.592Z,0.77
2023-05-11T16:08:45.137Z,0.40
2023-05-11T16:11:19.460Z,0.60
2023-05-11T16:13:52.124Z,0.80
2023-05-11T16:16:25.025Z,0.70
2023-05-11T16:18:59.877Z,0.40
2023-05-11T16:21:33.663Z,0.57
2023-05-11T16:24:14.815Z,0.85
2023-05-11T16:26:51.463Z,0.88
2023-05-11T16:29:26.752Z,0.70
2023-05-11T16:31:59.840Z,0.55
2023-05-11T16:34:35.304Z,1.20
2023-05-11T16:37:08.276Z,0.70
2023-05-11T16:39:40.877Z,1.15
2023-05-11T16:45:11.026Z,1.05
2023-05-11T16:47:50.545Z,1.57
2023-05-11T16:50:24.886Z,1.10
2023-05-11T16:52:57.916Z,1.05
2023-05-11T16:55:31.803Z,1.55
2023-05-11T16:58:04.842Z,1.52
2023-05-11T17:00:37.649Z,1.93
2023-05-11T17:03:10.535Z,1.38
2023-05-11T17:05:45.680Z,1.83
2023-05-11T17:08:19.807Z,1.25
2023-05-11T17:10:52.766Z,1.27
2023-05-11T17:13:25.615Z,1.17
2023-05-11T17:15:58.907Z,1.17
2023-05-11T17:18:32.376Z,1.00
2023-05-11T17:21:10.274Z,1.25
2023-05-11T17:23:45.575Z,1.10
2023-05-11T17:26:18.722Z,0.90
2023-05-11T17:28:51.306Z,1.83
2023-05-11T17:31:27.763Z,16.52
2023-05-11T17:34:01.396Z,2.53
2023-05-11T17:36:36.479Z,1.55
2023-05-11T17:39:10.035Z,1.83
2023-05-11T17:41:48.767Z,1.05
2023-05-11T17:44:24.884Z,1.77
2023-05-11T17:46:59.805Z,1.25
2023-05-11T17:49:32.804Z,1.25
2023-05-11T17:52:07.404Z,1.33
2023-05-11T17:54:40.096Z,1.60
2023-05-11T17:57:13.287Z,1.38
2023-05-11T17:59:49.680Z,0.77
2023-05-11T18:02:23.097Z,0.80
2023-05-11T18:04:56.238Z,1.67
2023-05-11T18:07:38.839Z,0.90
2023-05-11T18:10:17.332Z,1.33
2023-05-11T18:12:50.924Z,1.15
2023-05-11T18:18:42.781Z,3.33
2023-05-11T18:21:16.600Z,1.77
2023-05-11T18:23:51.788Z,0.90
2023-05-11T18:26:26.125Z,0.77
2023-05-11T18:29:35.245Z,1.23
2023-05-11T18:32:11.583Z,1.03
2023-05-11T18:34:46.495Z,1.85
2023-05-11T18:37:21.133Z,4.55
2023-05-11T18:39:58.666Z,2.28
2023-05-11T18:45:53.624Z,1.33
2023-05-11T18:48:35.443Z,1.10
2023-05-11T18:51:13.406Z,6.43
2023-05-11T18:53:48.524Z,11.52
2023-05-11T18:56:36.590Z,13.13
2023-05-11T18:59:09.239Z,11.33
2023-05-11T19:01:49.041Z,6.70
2023-05-11T19:04:23.450Z,2.00
2023-05-11T19:06:58.339Z,2.20
2023-05-11T19:09:30.895Z,2.15
2023-05-11T19:12:08.377Z,1.83
2023-05-11T19:14:41.644Z,1.30
2023-05-11T19:17:22.028Z,1.20
2023-05-11T19:20:04.549Z,1.30
2023-05-11T19:22:39.628Z,1.25
2023-05-11T19:25:15.118Z,1.20
2023-05-11T19:27:49.497Z,1.30
2023-05-11T19:30:24.945Z,1.27
2023-05-11T19:33:03.197Z,1.73
2023-05-11T19:35:38.519Z,1.00
2023-05-11T19:38:19.606Z,1.27
2023-05-11T19:41:29.491Z,1.95
2023-05-11T19:44:22.573Z,0.98
2023-05-11T19:46:55.076Z,1.15
2023-05-11T19:49:30.923Z,0.85
2023-05-11T19:52:06.822Z,1.53
2023-05-11T19:54:41.759Z,1.40
2023-05-11T19:57:14.399Z,2.35
2023-05-11T19:59:53.321Z,1.52
2023-05-11T20:02:29.620Z,2.05
2023-05-11T20:05:04.301Z,1.20
2023-05-11T20:07:39.662Z,1.02
2023-05-11T20:10:12.744Z,1.45
2023-05-11T20:12:45.524Z,1.48
2023-05-11T20:15:20.325Z,2.08
2023-05-11T20:17:52.833Z,0.93
2023-05-11T20:20:25.816Z,1.58
2023-05-11T20:22:58.610Z,1.25
2023-05-11T20:25:31.147Z,1.23
2023-05-11T20:28:03.986Z,1.67
2023-05-11T20:30:38.652Z,1.37
2023-05-11T20:35:51.326Z,1.52
2023-05-11T20:38:34.909Z,0.80
2023-05-11T20:41:07.926Z,1.40
2023-05-11T20:43:40.665Z,1.23
2023-05-11T20:46:16.234Z,1.10
2023-05-11T20:48:51.749Z,1.23
2023-05-11T20:51:25.257Z,1.63
2023-05-11T20:53:57.968Z,1.75
2023-05-11T20:56:30.837Z,1.47
2023-05-11T20:59:06.294Z,1.77
2023-05-11T21:01:41.215Z,1.30
2023-05-11T21:04:14.393Z,1.85
2023-05-11T21:06:47.371Z,1.00
2023-05-11T21:09:19.791Z,1.20
2023-05-11T21:11:53.177Z,1.23
2023-05-11T21:14:26.129Z,1.40
2023-05-11T21:17:00.154Z,0.93
2023-05-11T21:19:33.196Z,0.90
2023-05-11T21:22:05.710Z,0.80
2023-05-11T21:24:39.008Z,1.40
2023-05-11T21:27:11.838Z,1.40
2023-05-11T21:29:44.679Z,1.25
2023-05-11T21:32:19.250Z,1.45
2023-05-11T21:34:52.081Z,1.80
2023-05-11T21:37:24.459Z,1.77
2023-05-11T21:39:57.438Z,3.70
2023-05-11T21:42:34.678Z,2.53
2023-05-11T21:45:09.483Z,1.63
2023-05-11T21:47:43.356Z,2.73
2023-05-11T21:50:17.631Z,1.98
2023-05-11T21:52:50.263Z,1.50
2023-05-11T21:55:23.705Z,1.40
2023-05-11T21:57:57.123Z,1.52
2023-05-11T22:00:30.089Z,1.07
2023-05-11T22:03:04.282Z,1.30
2023-05-11T22:05:37.687Z,1.77
2023-05-11T22:08:15.036Z,1.60
2023-05-11T22:10:48.833Z,1.55
2023-05-11T22:13:22.156Z,1.33
2023-05-11T22:15:54.636Z,1.30
2023-05-11T22:18:29.292Z,1.20
2023-05-11T22:21:01.873Z,1.25
2023-05-11T22:23:35.048Z,1.50
2023-05-11T22:26:07.810Z,1.80
2023-05-11T22:28:41.661Z,1.30
2023-05-11T22:31:14.190Z,3.05
2023-05-11T22:33:48.760Z,2.45
2023-05-11T22:36:21.255Z,2.10
2023-05-11T22:38:54.884Z,2.50
2023-05-11T22:41:27.430Z,1.13
2023-05-11T22:44:00.632Z,1.60
2023-05-11T22:46:33.166Z,1.40
2023-05-11T22:49:08.813Z,1.17
2023-05-11T22:51:41.353Z,2.07
2023-05-11T22:54:15.954Z,1.17
2023-05-11T22:56:48.367Z,1.65
2023-05-11T22:59:21.545Z,1.20
2023-05-11T23:01:55.358Z,1.35
2023-05-11T23:04:30.107Z,1.20
2023-05-11T23:07:04.372Z,1.08
2023-05-11T23:09:37.326Z,2.53
2023-05-11T23:12:10.380Z,1.08
2023-05-11T23:14:43.875Z,1.30
2023-05-11T23:17:17.134Z,1.07
2023-05-11T23:19:50.994Z,1.60
2023-05-11T23:22:23.774Z,1.70
2023-05-11T23:24:56.505Z,0.80
2023-05-11T23:27:29.791Z,2.25
2023-05-11T23:30:02.833Z,0.83
2023-05-11T23:32:40.535Z,0.95
2023-05-11T23:35:14.907Z,1.17
2023-05-11T23:37:47.341Z,1.00
2023-05-11T23:40:20.344Z,1.98
2023-05-11T23:42:53.553Z,0.87
2023-05-11T23:45:28.133Z,1.05
2023-05-11T23:48:00.594Z,1.00
2023-05-11T23:50:35.135Z,0.73
2023-05-11T23:53:07.820Z,1.02
2023-05-11T23:55:41.081Z,1.23
2023-05-11T23:58:13.613Z,1.20
